createdAt,value
2018-06-05T00:00:07.794Z,0.00
2018-06-05T00:01:07.781Z,0.00
2018-06-05T00:02:07.768Z,0.00
2018-06-05T00:03:07.756Z,0.00
2018-06-05T00:04:07.742Z,0.00
2018-06-05T00:05:07.727Z,0.00
2018-06-05T00:06:07.724Z,0.00
2018-06-05T00:07:07.701Z,0.00
2018-06-05T00:08:07.687Z,0.00
2018-06-05T00:09:07.674Z,0.00
2018-06-05T00:10:07.662Z,0.00
2018-06-05T00:11:07.650Z,0.00
2018-06-05T00:12:07.637Z,0.00
2018-06-05T00:13:07.621Z,0.00
2018-06-05T00:14:07.610Z,0.00
2018-06-05T00:15:07.594Z,0.00
2018-06-05T00:16:07.581Z,0.00
2018-06-05T00:17:07.567Z,0.00
2018-06-05T00:18:07.555Z,0.00
2018-06-05T00:19:07.541Z,0.00
2018-06-05T00:20:07.528Z,0.00
2018-06-05T00:21:07.515Z,0.00
2018-06-05T00:22:07.502Z,0.00
2018-06-05T00:23:07.493Z,0.00
2018-06-05T00:24:07.476Z,0.00
2018-06-05T00:25:07.460Z,0.00
2018-06-05T00:26:07.447Z,0.00
2018-06-05T00:27:07.437Z,0.00
2018-06-05T00:28:07.423Z,0.00
2018-06-05T00:29:07.409Z,0.00
2018-06-05T00:30:07.396Z,0.00
2018-06-05T00:31:07.384Z,0.00
2018-06-05T00:32:07.368Z,0.00
2018-06-05T00:33:07.353Z,0.00
2018-06-05T00:34:07.342Z,0.00
2018-06-05T00:35:07.328Z,0.00
2018-06-05T00:36:07.316Z,0.00
2018-06-05T00:37:07.301Z,0.00
2018-06-05T00:38:07.288Z,0.00
2018-06-05T00:39:07.284Z,0.00
2018-06-05T00:40:07.263Z,0.00
2018-06-05T00:41:07.248Z,0.00
2018-06-05T00:42:07.234Z,0.00
2018-06-05T00:43:07.222Z,0.00
2018-06-05T00:44:07.210Z,0.00
2018-06-05T00:45:07.192Z,0.00
2018-06-05T00:46:07.180Z,0.00
2018-06-05T00:47:07.168Z,0.00
2018-06-05T00:48:07.153Z,0.00
2018-06-05T00:49:07.144Z,0.00
2018-06-05T00:50:07.126Z,0.00
2018-06-05T00:51:07.116Z,0.00
2018-06-05T00:52:07.101Z,0.00
2018-06-05T00:53:07.085Z,0.00
2018-06-05T00:54:07.071Z,0.00
2018-06-05T00:55:07.059Z,0.00
2018-06-05T00:56:07.046Z,0.00
2018-06-05T00:57:07.030Z,0.00
2018-06-05T00:58:07.021Z,0.00
2018-06-05T00:59:07.004Z,0.00
2018-06-05T01:00:06.993Z,0.00
2018-06-05T01:01:06.977Z,0.00
2018-06-05T01:02:06.963Z,0.00
2018-06-05T01:03:06.949Z,0.00
2018-06-05T01:04:06.938Z,0.00
2018-06-05T01:05:06.923Z,0.00
2018-06-05T01:06:06.910Z,0.00
2018-06-05T01:07:06.894Z,0.00
2018-06-05T01:08:06.884Z,0.00
2018-06-05T01:09:06.868Z,0.00
2018-06-05T01:10:06.856Z,0.00
2018-06-05T01:11:06.849Z,0.00
2018-06-05T01:12:06.832Z,0.00
2018-06-05T01:13:06.813Z,0.00
2018-06-05T01:14:06.801Z,0.00
2018-06-05T01:15:06.788Z,0.00
2018-06-05T01:16:06.776Z,0.00
2018-06-05T01:17:06.759Z,0.00
2018-06-05T01:18:06.746Z,0.00
2018-06-05T01:19:06.741Z,0.00
2018-06-05T01:20:06.721Z,0.00
2018-06-05T01:21:06.705Z,0.00
2018-06-05T01:22:06.693Z,0.00
2018-06-05T01:23:06.679Z,0.00
2018-06-05T01:24:06.667Z,0.00
2018-06-05T01:25:06.652Z,0.00
2018-06-05T01:26:06.637Z,0.00
2018-06-05T01:27:06.625Z,0.00
2018-06-05T01:28:06.611Z,0.00
2018-06-05T01:29:06.595Z,0.00
2018-06-05T01:30:06.584Z,0.00
2018-06-05T01:31:06.571Z,0.00
2018-06-05T01:32:06.558Z,0.00
2018-06-05T01:33:06.543Z,0.00
2018-06-05T01:34:06.529Z,0.00
2018-06-05T01:35:06.516Z,0.00
2018-06-05T01:36:06.503Z,0.00
2018-06-05T01:37:06.489Z,0.00
2018-06-05T01:38:06.474Z,0.00
2018-06-05T01:39:06.463Z,0.00
2018-06-05T01:40:06.448Z,0.00
2018-06-05T01:41:06.436Z,0.00
2018-06-05T01:42:06.421Z,0.00
2018-06-05T01:43:06.405Z,0.00
2018-06-05T01:44:06.393Z,0.00
2018-06-05T01:45:06.379Z,0.00
2018-06-05T01:46:06.366Z,0.00
2018-06-05T01:47:06.352Z,0.00
2018-06-05T01:48:06.340Z,0.00
2018-06-05T01:49:06.325Z,0.00
2018-06-05T01:50:06.322Z,0.00
2018-06-05T01:51:06.297Z,0.00
2018-06-05T01:52:06.289Z,0.00
2018-06-05T01:53:06.271Z,0.00
2018-06-05T01:54:06.270Z,0.00
2018-06-05T01:55:06.243Z,0.00
2018-06-05T01:56:06.230Z,0.00
2018-06-05T01:57:06.217Z,0.00
2018-06-05T01:58:06.201Z,0.00
2018-06-05T01:59:06.192Z,0.00
2018-06-05T02:00:06.179Z,0.00
2018-06-05T02:01:06.161Z,0.00
2018-06-05T02:02:06.149Z,0.00
2018-06-05T02:03:06.138Z,0.00
2018-06-05T02:04:06.123Z,0.00
2018-06-05T02:05:06.112Z,0.00
2018-06-05T02:06:06.095Z,4.00
2018-06-05T02:07:06.085Z,4.00
2018-06-05T02:08:06.067Z,0.00
2018-06-05T02:09:06.054Z,0.00
2018-06-05T02:10:06.038Z,0.00
2018-06-05T02:11:06.026Z,0.00
2018-06-05T02:12:06.017Z,4.00
2018-06-05T02:13:06.001Z,4.00
2018-06-05T02:14:05.984Z,4.00
2018-06-05T02:15:05.974Z,0.00
2018-06-05T02:16:05.959Z,4.00
2018-06-05T02:17:05.944Z,4.00
2018-06-05T02:18:05.931Z,4.00
2018-06-05T02:19:05.921Z,4.00
2018-06-05T02:20:05.908Z,4.00
2018-06-05T02:21:05.893Z,8.00
2018-06-05T02:22:05.877Z,4.00
2018-06-05T02:23:05.865Z,8.00
2018-06-05T02:24:05.851Z,8.00
2018-06-05T02:25:05.836Z,12.00
2018-06-05T02:26:05.824Z,12.00
2018-06-05T02:27:05.812Z,12.00
2018-06-05T02:28:05.796Z,12.00
2018-06-05T02:29:05.783Z,12.00
2018-06-05T02:30:05.783Z,12.00
2018-06-05T02:31:05.756Z,16.00
2018-06-05T02:32:05.742Z,16.00
2018-06-05T02:33:05.728Z,16.00
2018-06-05T02:34:05.718Z,20.00
2018-06-05T02:35:05.702Z,20.00
2018-06-05T02:36:05.688Z,24.00
2018-06-05T02:37:05.673Z,28.00
2018-06-05T02:38:05.665Z,32.00
2018-06-05T02:39:05.646Z,32.00
2018-06-05T02:40:05.634Z,32.00
2018-06-05T02:41:05.620Z,36.00
2018-06-05T02:42:05.606Z,40.00
2018-06-05T02:43:05.595Z,48.00
2018-06-05T02:44:05.582Z,52.00
2018-06-05T02:45:05.569Z,52.00
2018-06-05T02:46:05.561Z,56.00
2018-06-05T02:47:05.538Z,60.00
2018-06-05T02:48:05.525Z,64.00
2018-06-05T02:49:05.512Z,72.00
2018-06-05T02:50:05.501Z,76.00
2018-06-05T02:51:05.487Z,84.00
2018-06-05T02:52:05.470Z,92.00
2018-06-05T02:53:05.457Z,100.00
2018-06-05T02:54:05.443Z,104.00
2018-06-05T02:55:05.428Z,112.00
2018-06-05T02:56:05.424Z,116.00
2018-06-05T02:57:05.407Z,124.00
2018-06-05T02:58:05.390Z,132.00
2018-06-05T02:59:05.373Z,136.00
2018-06-05T03:00:05.366Z,140.00
2018-06-05T03:01:05.346Z,148.00
2018-06-05T03:02:05.334Z,156.00
2018-06-05T03:03:05.319Z,168.00
2018-06-05T03:04:05.308Z,180.00
2018-06-05T03:05:05.293Z,188.00
2018-06-05T03:06:05.280Z,188.00
2018-06-05T03:07:05.265Z,192.00
2018-06-05T03:08:05.254Z,200.00
2018-06-05T03:09:05.238Z,216.00
2018-06-05T03:10:05.233Z,224.00
2018-06-05T03:11:05.212Z,232.00
2018-06-05T03:12:05.196Z,236.00
2018-06-05T03:13:05.181Z,244.00
2018-06-05T03:14:05.171Z,256.00
2018-06-05T03:15:05.155Z,276.00
2018-06-05T03:16:05.141Z,292.00
2018-06-05T03:17:05.131Z,304.00
2018-06-05T03:18:05.123Z,304.00
2018-06-05T03:19:05.101Z,312.00
2018-06-05T03:20:05.092Z,328.00
2018-06-05T03:21:05.072Z,332.00
2018-06-05T03:22:05.064Z,352.00
2018-06-05T03:23:05.055Z,356.00
2018-06-05T03:24:05.033Z,356.00
2018-06-05T03:25:05.026Z,368.00
2018-06-05T03:26:05.009Z,380.00
2018-06-05T03:27:04.992Z,400.00
2018-06-05T03:28:04.978Z,424.00
2018-06-05T03:29:04.964Z,444.00
2018-06-05T03:30:04.950Z,452.00
2018-06-05T03:31:04.935Z,468.00
2018-06-05T03:32:04.927Z,496.00
2018-06-05T03:33:04.910Z,520.00
2018-06-05T03:34:04.933Z,540.00
2018-06-05T03:35:04.882Z,568.00
2018-06-05T03:36:04.869Z,572.00
2018-06-05T03:37:04.854Z,564.00
2018-06-05T03:38:04.841Z,592.00
2018-06-05T03:39:04.827Z,612.00
2018-06-05T03:40:04.814Z,624.00
2018-06-05T03:41:04.811Z,620.00
2018-06-05T03:42:04.785Z,616.00
2018-06-05T03:43:04.774Z,640.00
2018-06-05T03:44:04.760Z,632.00
2018-06-05T03:45:04.746Z,664.00
2018-06-05T03:46:04.731Z,724.00
2018-06-05T03:47:04.716Z,768.00
2018-06-05T03:48:04.704Z,752.00
2018-06-05T03:49:04.689Z,752.00
2018-06-05T03:50:04.676Z,720.00
2018-06-05T03:51:04.662Z,736.00
2018-06-05T03:52:04.649Z,760.00
2018-06-05T03:53:04.635Z,780.00
2018-06-05T03:54:04.621Z,812.00
2018-06-05T03:55:04.612Z,868.00
2018-06-05T03:56:04.597Z,916.00
2018-06-05T03:57:04.600Z,960.00
2018-06-05T03:58:04.566Z,988.00
2018-06-05T03:59:04.553Z,980.00
2018-06-05T04:00:04.539Z,956.00
2018-06-05T04:01:04.525Z,976.00
2018-06-05T04:02:04.510Z,1016.00
2018-06-05T04:03:04.497Z,1012.00
2018-06-05T04:04:04.484Z,972.00
2018-06-05T04:05:04.475Z,988.00
2018-06-05T04:06:04.459Z,984.00
2018-06-05T04:07:04.443Z,1020.00
2018-06-05T04:08:04.431Z,1080.00
2018-06-05T04:09:04.418Z,1104.00
2018-06-05T04:10:04.405Z,1020.00
2018-06-05T04:11:04.398Z,876.00
2018-06-05T04:12:04.378Z,812.00
2018-06-05T04:13:04.362Z,788.00
2018-06-05T04:14:04.355Z,740.00
2018-06-05T04:15:04.335Z,756.00
2018-06-05T04:16:04.322Z,752.00
2018-06-05T04:17:04.308Z,720.00
2018-06-05T04:18:04.295Z,660.00
2018-06-05T04:19:04.283Z,692.00
2018-06-05T04:20:04.266Z,752.00
2018-06-05T04:21:04.254Z,768.00
2018-06-05T04:22:04.243Z,768.00
2018-06-05T04:23:04.229Z,780.00
2018-06-05T04:24:04.213Z,788.00
2018-06-05T04:25:04.200Z,836.00
2018-06-05T04:26:04.186Z,876.00
2018-06-05T04:27:04.199Z,880.00
2018-06-05T04:28:04.159Z,868.00
2018-06-05T04:29:04.149Z,856.00
2018-06-05T04:30:04.132Z,868.00
2018-06-05T04:31:04.122Z,868.00
2018-06-05T04:32:04.107Z,864.00
2018-06-05T04:33:04.095Z,844.00
2018-06-05T04:34:04.078Z,804.00
2018-06-05T04:35:04.067Z,844.00
2018-06-05T04:36:04.053Z,888.00
2018-06-05T04:37:04.040Z,920.00
2018-06-05T04:38:04.024Z,1008.00
2018-06-05T04:39:04.013Z,1048.00
2018-06-05T04:40:04.004Z,968.00
2018-06-05T04:41:03.987Z,952.00
2018-06-05T04:42:03.972Z,904.00
2018-06-05T04:43:03.959Z,892.00
2018-06-05T04:44:03.945Z,868.00
2018-06-05T04:45:03.935Z,908.00
2018-06-05T04:46:03.915Z,1020.00
2018-06-05T04:47:03.903Z,1088.00
2018-06-05T04:48:03.890Z,1096.00
2018-06-05T04:49:03.874Z,1092.00
2018-06-05T04:50:03.865Z,1072.00
2018-06-05T04:51:03.848Z,1028.00
2018-06-05T04:52:03.836Z,972.00
2018-06-05T04:53:03.821Z,980.00
2018-06-05T04:54:03.811Z,984.00
2018-06-05T04:55:03.794Z,1012.00
2018-06-05T04:56:03.782Z,1028.00
2018-06-05T04:57:03.767Z,984.00
2018-06-05T04:58:03.755Z,1020.00
2018-06-05T04:59:03.739Z,1140.00
2018-06-05T05:00:03.726Z,1188.00
2018-06-05T05:01:03.718Z,1176.00
2018-06-05T05:02:03.699Z,1264.00
2018-06-05T05:03:03.685Z,1440.00
2018-06-05T05:04:03.672Z,1472.00
2018-06-05T05:05:03.660Z,1412.00
2018-06-05T05:06:03.645Z,1344.00
2018-06-05T05:07:03.631Z,1348.00
2018-06-05T05:08:03.621Z,1436.00
2018-06-05T05:09:03.605Z,1556.00
2018-06-05T05:10:03.593Z,1676.00
2018-06-05T05:11:03.578Z,1732.00
2018-06-05T05:12:03.565Z,1796.00
2018-06-05T05:13:03.559Z,1904.00
2018-06-05T05:14:03.536Z,1848.00
2018-06-05T05:15:03.524Z,1840.00
2018-06-05T05:16:03.508Z,1816.00
2018-06-05T05:17:03.497Z,1688.00
2018-06-05T05:18:03.490Z,1572.00
2018-06-05T05:19:03.471Z,1528.00
2018-06-05T05:20:03.456Z,1444.00
2018-06-05T05:21:03.443Z,1408.00
2018-06-05T05:22:03.430Z,1452.00
2018-06-05T05:23:03.418Z,1468.00
2018-06-05T05:24:03.404Z,1512.00
2018-06-05T05:25:03.389Z,1556.00
2018-06-05T05:26:03.375Z,1604.00
2018-06-05T05:27:03.364Z,1672.00
2018-06-05T05:28:03.351Z,1668.00
2018-06-05T05:29:03.339Z,1616.00
2018-06-05T05:30:03.322Z,1620.00
2018-06-05T05:31:03.314Z,1588.00
2018-06-05T05:32:03.295Z,1600.00
2018-06-05T05:33:03.287Z,1676.00
2018-06-05T05:34:03.271Z,1692.00
2018-06-05T05:35:03.259Z,1688.00
2018-06-05T05:36:03.246Z,1656.00
2018-06-05T05:37:03.232Z,1604.00
2018-06-05T05:38:03.215Z,1568.00
2018-06-05T05:39:03.202Z,1580.00
2018-06-05T05:40:03.190Z,1632.00
2018-06-05T05:41:03.180Z,1652.00
2018-06-05T05:42:03.165Z,1652.00
2018-06-05T05:43:03.149Z,1632.00
2018-06-05T05:44:03.136Z,1652.00
2018-06-05T05:45:03.124Z,1656.00
2018-06-05T05:46:03.111Z,1732.00
2018-06-05T05:47:03.159Z,1784.00
2018-06-05T05:48:03.082Z,1704.00
2018-06-05T05:49:03.070Z,1672.00
2018-06-05T05:50:03.058Z,1708.00
2018-06-05T05:51:03.044Z,1776.00
2018-06-05T05:52:03.036Z,1812.00
2018-06-05T05:53:03.018Z,1864.00
2018-06-05T05:54:03.002Z,1912.00
2018-06-05T05:55:02.989Z,1944.00
2018-06-05T05:56:02.979Z,1904.00
2018-06-05T05:57:02.965Z,1824.00
2018-06-05T05:58:02.949Z,1848.00
2018-06-05T05:59:02.935Z,1928.00
2018-06-05T06:00:02.926Z,1908.00
2018-06-05T06:01:02.910Z,1848.00
2018-06-05T06:02:02.901Z,1804.00
2018-06-05T06:03:02.882Z,1812.00
2018-06-05T06:04:02.872Z,1848.00
2018-06-05T06:05:02.863Z,1904.00
2018-06-05T06:06:02.844Z,1880.00
2018-06-05T06:07:02.830Z,1844.00
2018-06-05T06:08:02.819Z,1916.00
2018-06-05T06:09:02.807Z,1924.00
2018-06-05T06:10:02.788Z,2008.00
2018-06-05T06:11:02.782Z,2156.00
2018-06-05T06:12:02.768Z,2564.00
2018-06-05T06:13:02.751Z,2940.00
2018-06-05T06:14:02.750Z,3040.00
2018-06-05T06:15:02.724Z,2976.00
2018-06-05T06:16:02.709Z,2824.00
2018-06-05T06:17:02.700Z,2540.00
2018-06-05T06:18:02.683Z,2608.00
2018-06-05T06:19:02.671Z,2588.00
2018-06-05T06:20:02.661Z,2600.00
2018-06-05T06:21:02.648Z,2688.00
2018-06-05T06:22:02.632Z,2876.00
2018-06-05T06:23:02.620Z,2844.00
2018-06-05T06:24:02.607Z,2848.00
2018-06-05T06:25:02.591Z,2808.00
2018-06-05T06:26:02.597Z,2880.00
2018-06-05T06:27:02.618Z,2924.00
2018-06-05T06:28:02.554Z,2972.00
2018-06-05T06:29:02.539Z,3164.00
2018-06-05T06:30:02.531Z,3320.00
2018-06-05T06:31:02.514Z,3340.00
2018-06-05T06:32:02.502Z,3320.00
2018-06-05T06:33:02.486Z,3404.00
2018-06-05T06:34:02.474Z,3432.00
2018-06-05T06:35:02.461Z,3552.00
2018-06-05T06:36:02.449Z,3640.00
2018-06-05T06:37:02.442Z,3628.00
2018-06-05T06:38:02.423Z,3668.00
2018-06-05T06:39:02.408Z,3448.00
2018-06-05T06:40:02.397Z,3360.00
2018-06-05T06:41:02.385Z,3344.00
2018-06-05T06:42:02.369Z,3280.00
2018-06-05T06:43:02.356Z,3164.00
2018-06-05T06:44:02.344Z,3484.00
2018-06-05T06:45:02.330Z,3564.00
2018-06-05T06:46:02.320Z,3356.00
2018-06-05T06:47:02.304Z,3180.00
2018-06-05T06:48:02.293Z,3300.00
2018-06-05T06:49:02.305Z,3552.00
2018-06-05T06:50:02.266Z,3468.00
2018-06-05T06:51:02.253Z,3472.00
2018-06-05T06:52:02.238Z,3468.00
2018-06-05T06:53:02.229Z,3428.00
2018-06-05T06:54:02.215Z,3572.00
2018-06-05T06:55:02.202Z,3548.00
2018-06-05T06:56:02.190Z,3284.00
2018-06-05T06:57:02.174Z,3220.00
2018-06-05T06:58:02.166Z,3196.00
2018-06-05T06:59:02.149Z,3104.00
2018-06-05T07:00:02.138Z,3044.00
2018-06-05T07:01:02.125Z,3008.00
2018-06-05T07:02:02.111Z,3096.00
2018-06-05T07:03:02.101Z,3160.00
2018-06-05T07:04:02.087Z,3036.00
2018-06-05T07:05:02.073Z,2956.00
2018-06-05T07:06:02.060Z,3128.00
2018-06-05T07:07:02.091Z,3080.00
2018-06-05T07:08:02.034Z,2952.00
2018-06-05T07:09:02.024Z,2932.00
2018-06-05T07:10:02.012Z,2912.00
2018-06-05T07:11:01.997Z,2840.00
2018-06-05T07:12:01.984Z,2860.00
2018-06-05T07:13:01.971Z,2968.00
2018-06-05T07:14:01.959Z,3052.00
2018-06-05T07:15:01.962Z,3192.00
2018-06-05T07:16:01.932Z,3320.00
2018-06-05T07:17:01.920Z,3316.00
2018-06-05T07:18:01.907Z,3292.00
2018-06-05T07:19:01.894Z,3296.00
2018-06-05T07:20:01.882Z,3452.00
2018-06-05T07:21:01.873Z,3600.00
2018-06-05T07:22:01.857Z,3820.00
2018-06-05T07:23:01.852Z,4108.00
2018-06-05T07:24:01.837Z,4648.00
2018-06-05T07:25:01.817Z,5020.00
2018-06-05T07:26:01.804Z,4960.00
2018-06-05T07:27:01.792Z,4668.00
2018-06-05T07:28:01.783Z,4204.00
2018-06-05T07:29:01.769Z,4080.00
2018-06-05T07:30:01.755Z,3996.00
2018-06-05T07:31:01.742Z,3788.00
2018-06-05T07:32:01.729Z,3808.00
2018-06-05T07:33:01.715Z,3808.00
2018-06-05T07:34:01.731Z,3736.00
2018-06-05T07:35:01.692Z,3700.00
2018-06-05T07:36:01.678Z,3716.00
2018-06-05T07:37:01.666Z,3952.00
2018-06-05T07:38:01.653Z,4292.00
2018-06-05T07:39:01.642Z,4492.00
2018-06-05T07:40:01.631Z,4684.00
2018-06-05T07:41:01.616Z,4944.00
2018-06-05T07:42:01.605Z,4856.00
2018-06-05T07:43:01.593Z,4680.00
2018-06-05T07:44:01.575Z,4512.00
2018-06-05T07:45:01.568Z,4624.00
2018-06-05T07:46:01.554Z,4676.00
2018-06-05T07:47:01.539Z,4672.00
2018-06-05T07:48:01.531Z,4740.00
2018-06-05T07:49:01.521Z,4776.00
2018-06-05T07:50:01.538Z,5060.00
2018-06-05T07:51:01.491Z,5292.00
2018-06-05T07:52:01.478Z,5356.00
2018-06-05T07:53:01.467Z,5236.00
2018-06-05T07:54:01.453Z,5160.00
2018-06-05T07:55:01.442Z,5320.00
2018-06-05T07:56:01.432Z,5376.00
2018-06-05T07:57:01.426Z,5512.00
2018-06-05T07:58:01.404Z,5868.00
2018-06-05T07:59:01.392Z,6204.00
2018-06-05T08:00:01.384Z,6764.00
2018-06-05T08:01:01.368Z,7308.00
2018-06-05T08:02:01.365Z,7572.00
2018-06-05T08:03:01.344Z,7652.00
2018-06-05T08:04:01.331Z,7776.00
2018-06-05T08:05:01.320Z,7844.00
2018-06-05T08:06:01.306Z,7736.00
2018-06-05T08:07:01.297Z,7740.00
2018-06-05T08:08:01.285Z,8204.00
2018-06-05T08:09:01.272Z,9044.00
2018-06-05T08:10:01.262Z,9472.00
2018-06-05T08:11:01.253Z,9132.00
2018-06-05T08:12:01.236Z,8348.00
2018-06-05T08:13:01.224Z,7816.00
2018-06-05T08:14:01.218Z,7904.00
2018-06-05T08:15:01.204Z,8212.00
2018-06-05T08:16:01.193Z,8584.00
2018-06-05T08:17:01.176Z,8628.00
2018-06-05T08:18:01.168Z,9020.00
2018-06-05T08:19:01.155Z,8868.00
2018-06-05T08:20:01.149Z,8772.00
2018-06-05T08:21:01.130Z,9308.00
2018-06-05T08:22:01.119Z,10044.00
2018-06-05T08:23:01.107Z,9992.00
2018-06-05T08:24:01.095Z,9256.00
2018-06-05T08:25:01.092Z,8992.00
2018-06-05T08:26:01.076Z,9156.00
2018-06-05T08:27:01.064Z,9052.00
2018-06-05T08:28:01.062Z,8196.00
2018-06-05T08:29:01.038Z,7792.00
2018-06-05T08:30:01.027Z,7944.00
2018-06-05T08:31:01.019Z,7892.00
2018-06-05T08:32:01.008Z,8120.00
2018-06-05T08:33:00.992Z,8628.00
2018-06-05T08:34:00.981Z,9148.00
2018-06-05T08:35:00.970Z,9308.00
2018-06-05T08:36:00.959Z,9072.00
2018-06-05T08:37:00.949Z,9004.00
2018-06-05T08:38:01.004Z,9712.00
2018-06-05T08:39:00.926Z,10752.00
2018-06-05T08:40:00.916Z,12404.00
2018-06-05T08:41:00.905Z,10672.00
2018-06-05T08:42:00.894Z,8096.00
2018-06-05T08:43:00.883Z,7408.00
2018-06-05T08:44:00.872Z,7512.00
2018-06-05T08:45:00.863Z,7756.00
2018-06-05T08:46:00.850Z,7604.00
2018-06-05T08:47:00.842Z,7112.00
2018-06-05T08:48:00.828Z,7044.00
2018-06-05T08:49:00.816Z,6860.00
2018-06-05T08:50:00.806Z,6616.00
2018-06-05T08:51:00.796Z,7136.00
2018-06-05T08:52:00.787Z,8036.00
2018-06-05T08:53:00.772Z,8100.00
2018-06-05T08:54:00.763Z,7908.00
2018-06-05T08:55:00.755Z,7792.00
2018-06-05T08:56:00.745Z,7348.00
2018-06-05T08:57:00.732Z,6856.00
2018-06-05T08:58:00.725Z,6424.00
2018-06-05T08:59:00.716Z,6212.00
2018-06-05T09:00:00.708Z,6288.00
2018-06-05T09:01:00.691Z,6340.00
2018-06-05T09:02:00.678Z,6432.00
2018-06-05T09:03:00.669Z,6716.00
2018-06-05T09:04:00.658Z,7140.00
2018-06-05T09:05:00.647Z,7440.00
2018-06-05T09:06:00.635Z,7780.00
2018-06-05T09:07:00.626Z,8064.00
2018-06-05T09:08:00.612Z,8620.00
2018-06-05T09:09:00.629Z,9172.00
2018-06-05T09:10:00.594Z,9904.00
2018-06-05T09:11:00.583Z,10076.00
2018-06-05T09:12:00.572Z,9296.00
2018-06-05T09:13:00.563Z,8536.00
2018-06-05T09:14:00.552Z,7716.00
2018-06-05T09:15:00.540Z,7140.00
2018-06-05T09:16:00.531Z,6920.00
2018-06-05T09:17:00.518Z,6840.00
2018-06-05T09:18:00.508Z,6948.00
2018-06-05T09:19:00.500Z,7120.00
2018-06-05T09:20:00.492Z,7340.00
2018-06-05T09:21:00.479Z,7624.00
2018-06-05T09:22:00.467Z,7792.00
2018-06-05T09:23:00.456Z,7596.00
2018-06-05T09:24:00.448Z,7372.00
2018-06-05T09:25:00.435Z,7392.00
2018-06-05T09:26:00.426Z,7412.00
2018-06-05T09:27:00.414Z,7564.00
2018-06-05T09:28:00.404Z,7868.00
2018-06-05T09:29:00.414Z,7848.00
2018-06-05T09:30:00.381Z,7416.00
2018-06-05T09:31:00.376Z,7752.00
2018-06-05T09:32:00.363Z,8176.00
2018-06-05T09:33:00.351Z,8120.00
2018-06-05T09:34:00.340Z,8104.00
2018-06-05T09:35:00.335Z,8276.00
2018-06-05T09:36:00.320Z,8756.00
2018-06-05T09:37:00.310Z,9500.00
2018-06-05T09:38:00.298Z,9624.00
2018-06-05T09:39:00.288Z,9132.00
2018-06-05T09:40:00.282Z,8456.00
2018-06-05T09:41:00.272Z,7992.00
2018-06-05T09:42:00.262Z,7896.00
2018-06-05T09:43:00.247Z,7756.00
2018-06-05T09:44:00.239Z,7248.00
2018-06-05T09:45:00.231Z,6796.00
2018-06-05T09:46:00.219Z,6528.00
2018-06-05T09:47:00.221Z,6472.00
2018-06-05T09:48:00.198Z,7036.00
2018-06-05T09:49:00.188Z,8764.00
2018-06-05T09:50:00.176Z,10472.00
2018-06-05T09:51:00.167Z,10076.00
2018-06-05T09:52:00.186Z,8692.00
2018-06-05T09:53:00.146Z,8268.00
2018-06-05T09:54:00.137Z,8420.00
2018-06-05T09:55:00.128Z,8584.00
2018-06-05T09:56:00.142Z,8092.00
2018-06-05T09:57:00.108Z,7632.00
2018-06-05T09:58:00.276Z,7276.00
2018-06-05T09:59:00.084Z,6748.00
2018-06-05T10:00:00.076Z,6256.00
2018-06-05T10:01:00.067Z,5900.00
2018-06-05T10:02:00.056Z,5832.00
2018-06-05T10:03:00.044Z,5836.00
2018-06-05T10:04:00.035Z,5808.00
2018-06-05T10:05:00.027Z,5752.00
2018-06-05T10:06:00.024Z,5716.00
2018-06-05T10:07:00.013Z,5680.00
2018-06-05T10:07:59.995Z,5908.00
2018-06-05T10:08:59.988Z,6168.00
2018-06-05T10:09:59.998Z,6040.00
2018-06-05T10:10:59.964Z,6052.00
2018-06-05T10:11:59.954Z,6208.00
2018-06-05T10:12:59.943Z,6412.00
2018-06-05T10:13:59.935Z,6548.00
2018-06-05T10:14:59.929Z,6656.00
2018-06-05T10:15:59.913Z,6616.00
2018-06-05T10:16:59.901Z,6788.00
2018-06-05T10:17:59.900Z,6760.00
2018-06-05T10:18:59.883Z,6208.00
2018-06-05T10:19:59.872Z,5720.00
2018-06-05T10:20:59.861Z,5640.00
2018-06-05T10:21:59.852Z,5804.00
2018-06-05T10:22:59.854Z,6400.00
2018-06-05T10:23:59.832Z,7276.00
2018-06-05T10:24:59.821Z,8176.00
2018-06-05T10:25:59.820Z,8760.00
2018-06-05T10:26:59.801Z,8388.00
2018-06-05T10:27:59.794Z,7776.00
2018-06-05T10:28:59.780Z,7056.00
2018-06-05T10:29:59.769Z,6904.00
2018-06-05T10:30:59.758Z,7236.00
2018-06-05T10:31:59.752Z,8152.00
2018-06-05T10:32:59.743Z,9428.00
2018-06-05T10:33:59.734Z,9408.00
2018-06-05T10:34:59.725Z,8944.00
2018-06-05T10:35:59.709Z,8372.00
2018-06-05T10:36:59.702Z,8044.00
2018-06-05T10:37:59.687Z,7712.00
2018-06-05T10:38:59.680Z,7296.00
2018-06-05T10:39:59.671Z,6788.00
2018-06-05T10:40:59.657Z,6552.00
2018-06-05T10:41:59.649Z,6484.00
2018-06-05T10:42:59.640Z,6696.00
2018-06-05T10:43:59.628Z,6952.00
2018-06-05T10:44:59.620Z,7176.00
2018-06-05T10:45:59.607Z,7240.00
2018-06-05T10:46:59.600Z,7024.00
2018-06-05T10:47:59.592Z,6732.00
2018-06-05T10:48:59.579Z,6192.00
2018-06-05T10:49:59.569Z,5704.00
2018-06-05T10:50:59.559Z,5664.00
2018-06-05T10:51:59.548Z,5784.00
2018-06-05T10:52:59.537Z,5688.00
2018-06-05T10:53:59.530Z,5724.00
2018-06-05T10:54:59.518Z,5836.00
2018-06-05T10:55:59.510Z,5948.00
2018-06-05T10:56:59.499Z,6024.00
2018-06-05T10:57:59.491Z,6436.00
2018-06-05T10:58:59.483Z,6644.00
2018-06-05T10:59:59.470Z,6820.00
2018-06-05T11:00:59.459Z,6936.00
2018-06-05T11:01:59.448Z,7168.00
2018-06-05T11:02:59.447Z,7664.00
2018-06-05T11:03:59.429Z,7748.00
2018-06-05T11:04:59.423Z,7372.00
2018-06-05T11:05:59.409Z,7180.00
2018-06-05T11:06:59.400Z,7296.00
2018-06-05T11:07:59.387Z,7876.00
2018-06-05T11:08:59.378Z,8860.00
2018-06-05T11:09:59.368Z,9432.00
2018-06-05T11:10:59.359Z,9464.00
2018-06-05T11:11:59.351Z,9040.00
2018-06-05T11:12:59.338Z,8880.00
2018-06-05T11:13:59.328Z,9216.00
2018-06-05T11:14:59.319Z,9516.00
2018-06-05T11:15:59.309Z,9708.00
2018-06-05T11:16:59.298Z,10428.00
2018-06-05T11:17:59.289Z,12052.00
2018-06-05T11:18:59.279Z,13148.00
2018-06-05T11:19:59.270Z,13344.00
2018-06-05T11:20:59.263Z,14728.00
2018-06-05T11:21:59.250Z,17280.00
2018-06-05T11:22:59.239Z,18528.00
2018-06-05T11:23:59.232Z,19744.00
2018-06-05T11:24:59.222Z,45696.00
2018-06-05T11:25:59.212Z,91712.00
2018-06-05T11:26:59.201Z,95584.00
2018-06-05T11:27:59.192Z,95200.00
2018-06-05T11:28:59.183Z,92000.00
2018-06-05T11:29:59.193Z,47520.00
2018-06-05T11:30:59.167Z,30848.00
2018-06-05T11:31:59.158Z,27296.00
2018-06-05T11:32:59.151Z,26656.00
2018-06-05T11:33:59.143Z,30400.00
2018-06-05T11:34:59.134Z,27776.00
2018-06-05T11:35:59.129Z,34752.00
2018-06-05T11:36:59.120Z,27008.00
2018-06-05T11:37:59.116Z,43232.00
2018-06-05T11:38:59.106Z,20576.00
2018-06-05T11:39:59.101Z,27296.00
2018-06-05T11:40:59.091Z,19936.00
2018-06-05T11:41:59.093Z,30016.00
2018-06-05T11:42:59.078Z,29312.00
2018-06-05T11:43:59.075Z,23008.00
2018-06-05T11:44:59.061Z,25568.00
2018-06-05T11:45:59.060Z,21216.00
2018-06-05T11:46:59.083Z,19232.00
2018-06-05T11:47:59.045Z,18528.00
2018-06-05T11:48:59.037Z,13348.00
2018-06-05T11:49:59.032Z,11792.00
2018-06-05T11:50:59.024Z,9692.00
2018-06-05T11:51:59.016Z,9500.00
2018-06-05T11:52:59.009Z,12496.00
2018-06-05T11:53:59.013Z,13644.00
2018-06-05T11:54:59.000Z,12128.00
2018-06-05T11:55:58.991Z,11012.00
2018-06-05T11:56:58.982Z,10720.00
2018-06-05T11:57:58.977Z,10812.00
2018-06-05T11:58:58.971Z,11192.00
2018-06-05T11:59:58.965Z,9152.00
2018-06-05T12:00:58.961Z,7708.00
2018-06-05T12:01:58.953Z,7256.00
2018-06-05T12:02:58.943Z,7632.00
2018-06-05T12:03:58.940Z,8344.00
2018-06-05T12:04:58.930Z,9248.00
2018-06-05T12:05:58.925Z,9316.00
2018-06-05T12:06:58.917Z,8876.00
2018-06-05T12:07:58.911Z,22688.00
2018-06-05T12:08:58.912Z,12200.00
2018-06-05T12:09:58.896Z,11808.00
2018-06-05T12:10:58.890Z,11512.00
2018-06-05T12:11:58.881Z,11248.00
2018-06-05T12:12:58.875Z,11428.00
2018-06-05T12:13:58.867Z,12304.00
2018-06-05T12:14:58.861Z,12160.00
2018-06-05T12:15:58.859Z,12192.00
2018-06-05T12:16:58.846Z,11808.00
2018-06-05T12:17:58.840Z,11764.00
2018-06-05T12:18:58.832Z,12228.00
2018-06-05T12:19:58.827Z,12440.00
2018-06-05T12:20:58.821Z,11196.00
2018-06-05T12:21:58.810Z,12352.00